»·PEaware :: SBE250 KRIL-KMOT

SBE250 :: KRIL-KMOT

FLIGHT INFORMATION

Flight Status: Arrived
Operator: Unknown
More flights by this operator :: More flights under this callsign
Pilot: Andrew J. (13363)
Aircraft: BOMBARDIER BD-100 CHALLENGER 300
(CL30)
More flights by this aircraft type
Origin: KRIL Garfield Co Regl
United States
Destination: KMOT Minot Intl
United States
More flights between these airports :: More routes between these airports
Route: UYRIG5 SXW LAR DIK MOT
File this flight plan on PilotEdge
Remarks:
Altitude:
(Current/Filed)
41,000ft
Speed:
(Current/Filed)
460kts
Departed: 17-Apr-18 10:21 PM
Arrived: 17-Apr-18 11:45 PM
Distance/Time
Traveled:
593nm/1:24
Distance/Time
To Go:
Arrived

Flight Plot

Page will automatically refresh every two minutes.

Flight plan parsing failed; only flown route is shown


Map Options




Map Legend


Flown Route
Filed Route
Departure Airport
Arrival Airport
Navaid (VOR, NDB)
Fix

Horizontal Profiles

Position Reports

Time Latitude Longitude Heading Altitude Ground
Speed
17-Apr-18 22:08 39.524473 -107.723816 182 5480ft 0kts
17-Apr-18 22:09 39.524473 -107.723816 182 5480ft 0kts
17-Apr-18 22:10 39.524473 -107.723816 182 5480ft 0kts
17-Apr-18 22:11 39.524473 -107.723816 182 5480ft 0kts
17-Apr-18 22:12 39.524473 -107.723816 182 5480ft 0kts
17-Apr-18 22:13 39.524473 -107.723816 182 5480ft 0kts
17-Apr-18 22:14 39.524473 -107.723816 182 5480ft 0kts
17-Apr-18 22:15 39.524462 -107.723817 182 5480ft 1kts
17-Apr-18 22:16 39.525554 -107.725709 267 5480ft 12kts
17-Apr-18 22:17 39.525449 -107.730523 267 5480ft 20kts
17-Apr-18 22:18 39.525303 -107.737710 268 5480ft 18kts
17-Apr-18 22:19 39.526275 -107.740305 358 5480ft 4kts
17-Apr-18 22:20 39.526886 -107.715445 88 6092ft 149kts
17-Apr-18 22:21 39.531140 -107.662906 73 9014ft 175kts
17-Apr-18 22:22 39.543486 -107.593665 78 11837ft 239kts
17-Apr-18 22:23 39.558600 -107.490910 78 13976ft 341kts
17-Apr-18 22:24 39.576820 -107.364647 78 17717ft 366kts
17-Apr-18 22:25 39.595225 -107.235411 79 20870ft 385kts
17-Apr-18 22:26 39.608067 -107.144483 79 22053ft 418kts
17-Apr-18 22:27 39.639160 -107.013687 43 23486ft 446kts
17-Apr-18 22:28 39.738856 -106.918013 24 25752ft 453kts
17-Apr-18 22:29 39.848637 -106.833587 22 27789ft 466kts
17-Apr-18 22:30 39.963488 -106.748991 21 29038ft 492kts
17-Apr-18 22:31 40.084494 -106.660254 21 30378ft 507kts
17-Apr-18 22:32 40.203775 -106.572581 21 31949ft 510kts
17-Apr-18 22:33 40.327183 -106.481518 21 33583ft 510kts
17-Apr-18 22:34 40.450036 -106.390486 21 35224ft 508kts
17-Apr-18 22:35 40.567114 -106.303362 22 36857ft 501kts
17-Apr-18 22:36 40.686138 -106.214439 22 38601ft 489kts
17-Apr-18 22:37 40.804313 -106.125838 22 39214ft 499kts
17-Apr-18 22:38 40.927035 -106.033414 23 39216ft 520kts
17-Apr-18 22:39 41.053922 -105.937409 23 39159ft 538kts
17-Apr-18 22:40 41.180426 -105.841249 23 39131ft 545kts
17-Apr-18 22:41 41.312207 -105.740659 23 39132ft 549kts
17-Apr-18 22:42 41.450882 -105.666720 12 39132ft 534kts
17-Apr-18 22:43 41.588251 -105.599415 11 39133ft 522kts
17-Apr-18 22:44 41.722932 -105.533556 11 39135ft 514kts
17-Apr-18 22:45 41.855695 -105.468380 11 39137ft 506kts
17-Apr-18 22:46 41.986517 -105.403880 11 39138ft 500kts
17-Apr-18 22:47 42.112834 -105.341336 11 39126ft 496kts
17-Apr-18 22:48 42.240043 -105.278072 11 39123ft 491kts
17-Apr-18 22:49 42.367486 -105.214424 11 39125ft 486kts
17-Apr-18 22:50 42.493267 -105.151341 11 39099ft 484kts
17-Apr-18 22:51 42.618424 -105.088293 11 39100ft 481kts
17-Apr-18 22:52 42.743586 -105.024975 11 39102ft 479kts
17-Apr-18 22:53 42.868096 -104.961716 11 39103ft 480kts
17-Apr-18 22:54 42.993080 -104.897945 11 39105ft 484kts
17-Apr-18 22:55 43.117591 -104.834130 11 39105ft 487kts
17-Apr-18 22:56 43.242809 -104.769675 11 39083ft 490kts
17-Apr-18 22:57 43.370313 -104.703746 12 39079ft 492kts
17-Apr-18 22:58 43.498456 -104.637187 12 39080ft 494kts
17-Apr-18 22:59 43.626886 -104.570175 12 39081ft 496kts
17-Apr-18 23:00 43.755569 -104.502722 12 39083ft 498kts
17-Apr-18 23:01 43.884995 -104.434563 12 39096ft 499kts
17-Apr-18 23:02 44.013808 -104.366413 12 39112ft 500kts
17-Apr-18 23:03 44.139003 -104.299877 13 39097ft 500kts
17-Apr-18 23:04 44.268169 -104.231119 15 39067ft 500kts
17-Apr-18 23:05 44.398015 -104.161324 16 39073ft 502kts
17-Apr-18 23:06 44.528555 -104.090894 16 39075ft 504kts
17-Apr-18 23:07 44.659047 -104.020205 17 39076ft 506kts
17-Apr-18 23:08 44.790100 -103.948992 18 39080ft 507kts
17-Apr-18 23:09 44.921452 -103.876996 17 39079ft 509kts
17-Apr-18 23:10 45.052726 -103.804873 17 39017ft 512kts
17-Apr-18 23:11 45.183101 -103.732862 17 38993ft 513kts
17-Apr-18 23:12 45.315199 -103.659535 17 38995ft 513kts
17-Apr-18 23:13 45.447698 -103.585620 17 38996ft 513kts
17-Apr-18 23:14 45.580026 -103.511462 18 38999ft 512kts
17-Apr-18 23:15 45.711849 -103.437087 17 38998ft 508kts
17-Apr-18 23:16 45.841908 -103.363434 17 38980ft 505kts
17-Apr-18 23:17 45.969048 -103.291066 18 38967ft 501kts
17-Apr-18 23:18 46.097617 -103.217516 18 38969ft 498kts
17-Apr-18 23:19 46.221632 -103.146207 18 38963ft 495kts
17-Apr-18 23:20 46.348528 -103.072888 18 38965ft 492kts
17-Apr-18 23:21 46.474687 -102.999629 18 39017ft 489kts
17-Apr-18 23:22 46.600460 -102.926165 18 39021ft 487kts
17-Apr-18 23:23 46.727669 -102.851626 18 37897ft 507kts
17-Apr-18 23:24 46.858372 -102.769138 28 36422ft 520kts
17-Apr-18 23:25 46.978081 -102.651147 31 34952ft 516kts
17-Apr-18 23:26 47.094247 -102.531704 32 33487ft 507kts
17-Apr-18 23:27 47.203959 -102.417809 33 32058ft 498kts
17-Apr-18 23:28 47.312299 -102.304437 35 30590ft 486kts
17-Apr-18 23:29 47.420603 -102.190536 35 29078ft 474kts
17-Apr-18 23:30 47.526329 -102.078798 35 27570ft 462kts
17-Apr-18 23:31 47.629409 -101.969331 35 26066ft 450kts
17-Apr-18 23:32 47.729495 -101.862525 35 24469ft 441kts
17-Apr-18 23:33 47.829026 -101.755772 34 21997ft 446kts
17-Apr-18 23:34 47.926622 -101.650602 34 19728ft 415kts
17-Apr-18 23:35 48.001480 -101.568051 43 17630ft 393kts
17-Apr-18 23:36 48.035055 -101.419235 75 14827ft 377kts
17-Apr-18 23:37 48.019165 -101.282391 135 12076ft 340kts
17-Apr-18 23:38 48.000256 -101.171706 42 9563ft 285kts
17-Apr-18 23:39 48.071069 -101.146847 351 7561ft 267kts
17-Apr-18 23:40 48.139303 -101.158018 356 5699ft 243kts
17-Apr-18 23:41 48.191042 -101.190246 317 3583ft 175kts
17-Apr-18 23:42 48.223760 -101.233715 316 2350ft 147kts
17-Apr-18 23:43 48.251568 -101.270516 316 1669ft 116kts
17-Apr-18 23:44 48.258018 -101.280494 269 1686ft 6kts
17-Apr-18 23:45 48.259395 -101.283140 318 1690ft 10kts
17-Apr-18 23:46 48.261345 -101.286357 277 1699ft 9kts
17-Apr-18 23:47 48.261683 -101.289749 278 1706ft 7kts
17-Apr-18 23:48 48.261946 -101.292576 278 1711ft 6kts
17-Apr-18 23:49 48.261747 -101.293602 15 1713ft 0kts
17-Apr-18 23:50 48.261748 -101.293601 15 1713ft 0kts
17-Apr-18 23:51 48.261748 -101.293601 15 1713ft 0kts
17-Apr-18 23:52 48.261748 -101.293601 15 1713ft 0kts

Navigation Log

Ident Type
Flight plan parsing failed, navigation log unavailable